Time;durP1;ratioP1;P1;durP2;ratioP2;P2;SDS_P1;SDS_P2;PMS_P1;PMS_P2;Temp;Humidity;BMP_temperature;BMP_pressure;BME280_temperature;BME280_humidity;BME280_pressure;Samples;Min_cycle;Max_cycle;Signal;HPM_P1;HPM_P2
2022/10/02 00:00:10;;;;;;;8.60;2.00;;;;;;;8.74;100.00;93405.16;2087837;28;20052;-71
2022/10/02 00:01:46;;;;;;;8.55;1.95;;;;;;;8.73;100.00;93416.22;2119577;27;20078;-71
2022/10/02 00:02:56;;;;;;;6.93;1.42;;;;;;;8.69;100.00;93413.59;2120688;27;20065;-69
2022/10/02 00:03:57;;;;;;;11.20;1.63;;;;;;;8.64;100.00;93414.00;2123682;27;20033;-70
2022/10/02 00:05:13;;;;;;;10.93;2.00;;;;;;;8.66;100.00;93417.03;2121083;27;20030;-70
2022/10/02 00:06:20;;;;;;;8.38;1.42;;;;;;;8.89;100.00;93411.09;2122523;27;20139;-70
2022/10/02 00:07:29;;;;;;;9.70;1.52;;;;;;;9.31;100.00;93411.78;2123859;27;20088;-68
2022/10/02 00:08:34;;;;;;;9.93;1.63;;;;;;;9.28;100.00;93418.66;2120792;27;20038;-71
2022/10/02 00:09:55;;;;;;;7.20;1.50;;;;;;;9.16;100.00;93413.09;2123221;27;20122;-69
2022/10/02 00:11:11;;;;;;;9.98;1.30;;;;;;;9.07;100.00;93422.31;2123471;27;20491;-70
2022/10/02 00:12:16;;;;;;;15.18;2.22;;;;;;;9.13;100.00;93432.56;2122798;27;20079;-71
2022/10/02 00:13:32;;;;;;;10.82;1.77;;;;;;;9.11;100.00;93429.53;2122241;27;20031;-70
2022/10/02 00:14:37;;;;;;;8.00;1.30;;;;;;;9.07;100.00;93425.00;2122752;27;20035;-71
2022/10/02 00:15:41;;;;;;;9.18;1.15;;;;;;;9.10;100.00;93438.69;2123794;27;20414;-70
2022/10/02 00:16:49;;;;;;;9.43;1.40;;;;;;;9.04;100.00;93439.13;2122341;27;20045;-70
2022/10/02 00:17:53;;;;;;;5.55;1.17;;;;;;;9.06;100.00;93434.16;2113552;28;20039;-70
2022/10/02 00:18:55;;;;;;;12.43;2.05;;;;;;;9.14;100.00;93442.09;2113361;27;20100;-72
2022/10/02 00:19:56;;;;;;;10.32;1.67;;;;;;;9.13;100.00;93443.22;2122295;27;20031;-72
2022/10/02 00:21:29;;;;;;;11.43;1.98;;;;;;;9.11;100.00;93432.19;2123294;27;20026;-69
2022/10/02 00:22:39;;;;;;;8.95;1.73;;;;;;;9.07;100.00;93433.00;2114086;27;20024;-72
2022/10/02 00:23:50;;;;;;;10.57;1.63;;;;;;;9.18;100.00;93434.81;2113881;27;20399;-71
2022/10/02 00:25:16;;;;;;;9.55;1.60;;;;;;;9.24;100.00;93436.63;2122219;27;20050;-70
2022/10/02 00:26:34;;;;;;;5.65;1.50;;;;;;;9.25;100.00;93435.47;2112909;27;20393;-70
2022/10/02 00:27:44;;;;;;;8.93;1.40;;;;;;;9.30;100.00;93427.00;2116276;27;20039;-71
2022/10/02 00:28:54;;;;;;;6.65;1.52;;;;;;;9.26;100.00;93425.53;2123063;27;20031;-69
2022/10/02 00:29:59;;;;;;;8.88;1.50;;;;;;;9.24;100.00;93427.84;2123153;27;20054;-70
2022/10/02 00:31:12;;;;;;;10.27;1.65;;;;;;;9.26;100.00;93426.31;2111150;27;20065;-73
2022/10/02 00:32:21;;;;;;;6.13;1.33;;;;;;;9.30;100.00;93421.66;2115761;27;20042;-69
2022/10/02 00:33:43;;;;;;;8.07;1.90;;;;;;;9.27;100.00;93425.16;2123091;27;20373;-70
2022/10/02 00:35:41;;;;;;;8.55;1.58;;;;;;;9.22;100.00;93419.50;2121388;27;20054;-70
2022/10/02 00:37:09;;;;;;;10.63;1.52;;;;;;;9.19;100.00;93423.72;2069297;28;20030;-70
2022/10/02 00:38:34;;;;;;;6.18;1.52;;;;;;;9.14;100.00;93421.50;2075210;28;20057;-71
2022/10/02 00:39:56;;;;;;;6.55;1.23;;;;;;;9.25;100.00;93432.03;2078246;28;20045;-69
2022/10/02 00:41:19;;;;;;;7.70;1.63;;;;;;;9.32;100.00;93437.28;2079615;28;20031;-69
2022/10/02 00:42:35;;;;;;;7.53;1.83;;;;;;;9.23;100.00;93435.09;2098084;27;20373;-72
2022/10/02 00:44:11;;;;;;;6.55;1.42;;;;;;;9.07;100.00;93434.91;2122349;27;20030;-70
2022/10/02 00:45:21;;;;;;;5.32;1.23;;;;;;;8.97;100.00;93438.44;2085901;28;20060;-70
2022/10/02 00:46:31;;;;;;;;;;;;;;;8.86;100.00;93437.78;2122425;27;20031;-70
2022/10/02 00:47:41;;;;;;;4.97;1.05;;;;;;;8.83;100.00;93439.34;2123702;27;19909;-69
2022/10/02 00:48:58;;;;;;;5.05;1.33;;;;;;;8.80;100.00;93445.47;2121115;27;20533;-69
2022/10/02 00:50:50;;;;;;;8.05;1.60;;;;;;;8.72;100.00;93446.69;2122252;27;20070;-70
2022/10/02 00:51:56;;;;;;;7.93;1.38;;;;;;;8.63;100.00;93438.41;2091095;28;20040;-70
2022/10/02 00:52:57;;;;;;;6.18;1.10;;;;;;;8.61;100.00;93436.13;2090741;28;20028;-72
2022/10/02 00:54:39;;;;;;;4.25;0.95;;;;;;;8.63;100.00;93430.41;2091894;28;20032;-69
2022/10/02 00:55:49;;;;;;;7.30;1.10;;;;;;;8.62;100.00;93431.56;2089235;28;20057;-70
2022/10/02 00:57:05;;;;;;;8.10;1.48;;;;;;;8.57;100.00;93438.06;2083028;28;20115;-70
2022/10/02 00:58:29;;;;;;;3.55;1.05;;;;;;;8.75;100.00;93440.56;2115674;27;20059;-69
2022/10/02 00:59:33;;;;;;;6.05;1.30;;;;;;;8.63;100.00;93443.72;2122678;27;20465;-70
2022/10/02 01:00:48;;;;;;;4.05;1.33;;;;;;;8.55;100.00;93443.78;2120258;27;20449;-70
2022/10/02 01:02:13;;;;;;;7.43;1.23;;;;;;;8.51;100.00;93439.63;2121349;27;20038;-69
2022/10/02 01:03:36;;;;;;;5.20;1.50;;;;;;;8.51;100.00;93436.97;2122022;27;20111;-69
2022/10/02 01:04:46;;;;;;;7.32;1.40;;;;;;;8.48;100.00;93441.19;2120799;27;20050;-73
2022/10/02 01:05:58;;;;;;;7.80;1.67;;;;;;;8.46;100.00;93448.81;2120917;27;20033;-69
2022/10/02 01:07:00;;;;;;;4.63;2.22;;;;;;;8.41;100.00;93443.91;2122530;27;20560;-71
2022/10/02 01:08:06;;;;;;;6.80;1.42;;;;;;;8.42;100.00;93439.34;2121425;27;20687;-72
2022/10/02 01:09:11;;;;;;;5.13;1.42;;;;;;;8.39;100.00;93440.88;2122248;27;20092;-72
2022/10/02 01:10:13;;;;;;;8.88;1.70;;;;;;;8.37;100.00;93429.84;2122234;27;20049;-70
2022/10/02 01:11:15;;;;;;;5.35;1.30;;;;;;;8.38;100.00;93439.34;2120023;27;20035;-72
2022/10/02 01:12:18;;;;;;;6.18;1.13;;;;;;;8.47;100.00;93434.34;2105387;28;20071;-72
2022/10/02 01:13:19;;;;;;;3.65;1.50;;;;;;;8.37;100.00;93432.53;2104700;27;20066;-69
2022/10/02 01:14:41;;;;;;;7.60;1.70;;;;;;;8.39;100.00;93440.13;2121499;27;20084;-69
2022/10/02 01:15:53;;;;;;;4.57;1.17;;;;;;;8.35;100.00;93445.47;2122354;27;20022;-70
2022/10/02 01:17:15;;;;;;;3.58;1.30;;;;;;;8.44;100.00;93448.44;2121342;27;20472;-69
2022/10/02 01:18:19;;;;;;;6.20;1.27;;;;;;;8.39;100.00;93442.81;2120931;27;20023;-70
2022/10/02 01:19:35;;;;;;;11.95;1.98;;;;;;;8.31;100.00;93444.72;2123915;27;20461;-70
2022/10/02 01:20:43;;;;;;;5.57;1.20;;;;;;;8.37;100.00;93442.41;2120896;27;20234;-71
2022/10/02 01:21:52;;;;;;;6.35;1.02;;;;;;;8.33;100.00;93440.50;2121148;27;20041;-69
2022/10/02 01:23:11;;;;;;;3.67;1.33;;;;;;;8.45;100.00;93438.56;2122893;27;20027;-71
2022/10/02 01:24:28;;;;;;;4.05;0.93;;;;;;;8.40;100.00;93449.63;2122116;27;20042;-69
2022/10/02 01:25:33;;;;;;;4.35;1.13;;;;;;;8.37;100.00;93437.84;2122300;27;20031;-69
2022/10/02 01:26:39;;;;;;;4.60;1.50;;;;;;;8.38;100.00;93438.59;2121158;27;20054;-69
2022/10/02 01:27:41;;;;;;;7.70;1.40;;;;;;;8.49;100.00;93442.69;2121740;27;20102;-70
2022/10/02 01:28:48;;;;;;;5.95;1.60;;;;;;;8.47;100.00;93430.91;2121459;27;20075;-69
2022/10/02 01:29:59;;;;;;;8.02;1.48;;;;;;;8.53;100.00;93435.44;2121360;27;20464;-69
2022/10/02 01:31:15;;;;;;;7.50;1.50;;;;;;;8.52;100.00;93441.91;2109898;28;20035;-69
2022/10/02 01:32:17;;;;;;;6.93;1.38;;;;;;;8.75;100.00;93448.56;2113764;27;20028;-69
2022/10/02 01:33:19;;;;;;;7.30;1.77;;;;;;;8.75;100.00;93440.56;2121134;27;20019;-70
2022/10/02 01:34:20;;;;;;;13.30;2.22;;;;;;;8.77;100.00;93446.25;2120689;27;20050;-70
2022/10/02 01:35:26;;;;;;;8.27;1.52;;;;;;;8.79;100.00;93444.72;2121613;27;20016;-69
2022/10/02 01:36:29;;;;;;;8.35;1.20;;;;;;;8.80;100.00;93445.47;2120790;27;20364;-69
2022/10/02 01:37:33;;;;;;;8.32;1.50;;;;;;;8.78;100.00;93455.75;2120800;27;20035;-69
2022/10/02 01:38:35;;;;;;;8.00;1.75;;;;;;;8.81;100.00;93454.97;2120910;27;20153;-70
2022/10/02 01:39:36;;;;;;;4.13;1.10;;;;;;;8.77;100.00;93446.25;2110891;27;20031;-72
2022/10/02 01:40:39;;;;;;;7.85;1.58;;;;;;;8.76;100.00;93442.06;2111988;28;20023;-72
2022/10/02 01:41:43;;;;;;;7.75;1.50;;;;;;;8.84;100.00;93446.19;2121211;27;20971;-70
2022/10/02 01:42:44;;;;;;;7.18;1.33;;;;;;;9.11;100.00;93432.19;2121031;27;20452;-69
2022/10/02 01:43:59;;;;;;;8.93;1.52;;;;;;;9.10;100.00;93434.13;2120527;27;20046;-69
2022/10/02 01:45:03;;;;;;;7.88;1.30;;;;;;;9.06;100.00;93444.06;2120132;27;20054;-70
2022/10/02 01:46:31;;;;;;;8.70;1.45;;;;;;;9.04;100.00;93439.13;2121260;27;20031;-70
2022/10/02 01:47:47;;;;;;;6.18;1.40;;;;;;;9.28;100.00;93436.59;2121326;27;20057;-70
2022/10/02 01:49:03;;;;;;;7.88;1.30;;;;;;;9.48;100.00;93432.16;2119344;27;20011;-72
2022/10/02 01:50:12;;;;;;;9.88;1.98;;;;;;;9.44;100.00;93430.66;2120174;27;20054;-69
2022/10/02 01:52:07;;;;;;;11.07;1.75;;;;;;;9.51;100.00;93436.66;2121685;27;20059;-72
2022/10/02 01:53:22;;;;;;;7.72;1.38;;;;;;;9.63;100.00;93437.31;2094186;28;20747;-70
2022/10/02 01:54:41;;;;;;;2.65;1.15;;;;;;;9.54;100.00;93435.13;2095257;28;20494;-70
2022/10/02 01:55:48;;;;;;;9.60;1.70;;;;;;;9.59;100.00;93429.34;2109757;27;20110;-69
2022/10/02 01:57:04;;;;;;;7.07;1.42;;;;;;;9.53;100.00;93442.38;2121875;27;20369;-72
2022/10/02 01:58:18;;;;;;;5.68;1.50;;;;;;;9.49;100.00;93433.66;2121470;27;20415;-73
2022/10/02 01:59:38;;;;;;;12.48;1.55;;;;;;;9.42;100.00;93436.41;2120469;27;20027;-69
2022/10/02 02:01:04;;;;;;;4.70;1.55;;;;;;;9.39;100.00;93431.09;2121089;27;20034;-70
2022/10/02 02:02:16;;;;;;;8.30;1.55;;;;;;;9.44;100.00;93436.00;2121933;27;20716;-72
2022/10/02 02:03:22;;;;;;;8.70;1.55;;;;;;;9.41;100.00;93445.56;2120689;27;20027;-72
2022/10/02 02:04:29;;;;;;;4.95;1.00;;;;;;;9.46;100.00;93450.47;2120605;27;20450;-70
2022/10/02 02:05:53;;;;;;;3.45;1.27;;;;;;;9.43;100.00;93431.81;2121485;27;20517;-69
2022/10/02 02:07:34;;;;;;;6.68;1.42;;;;;;;9.45;100.00;93435.63;2121229;27;20034;-69
2022/10/02 02:08:49;;;;;;;7.75;1.40;;;;;;;9.61;100.00;93435.00;2121464;27;20055;-72
2022/10/02 02:10:08;;;;;;;8.02;1.42;;;;;;;9.60;100.00;93433.50;2111206;28;20027;-70
2022/10/02 02:11:15;;;;;;;8.30;1.55;;;;;;;9.62;100.00;93443.81;2115876;27;20035;-70
2022/10/02 02:12:44;;;;;;;7.30;1.30;;;;;;;9.63;100.00;93447.97;2120744;27;20113;-72
2022/10/02 02:15:53;;;;;;;;;;;;;;;9.74;100.00;93449.34;2135588;27;20556;-70
2022/10/02 02:17:25;;;;;;;7.57;1.45;;;;;;;9.76;100.00;93438.28;2134284;27;19937;-71
2022/10/02 02:18:39;;;;;;;7.82;1.50;;;;;;;9.62;100.00;93438.47;2104658;27;20457;-72
2022/10/02 02:19:51;;;;;;;5.15;1.27;;;;;;;9.54;100.00;93435.88;2133796;27;20069;-69
2022/10/02 02:20:57;;;;;;;7.97;1.52;;;;;;;9.50;100.00;93435.16;2133589;27;20114;-69
2022/10/02 02:22:18;;;;;;;5.82;1.40;;;;;;;9.59;100.00;93424.00;2133631;27;20029;-70
2022/10/02 02:23:25;;;;;;;13.57;1.90;;;;;;;9.55;100.00;93425.97;2134673;27;20512;-69
2022/10/02 02:24:51;;;;;;;10.88;1.73;;;;;;;9.49;100.00;93428.31;2125415;27;20050;-69
2022/10/02 02:25:56;;;;;;;12.18;2.00;;;;;;;9.50;100.00;93437.84;2127264;27;20491;-70
2022/10/02 02:27:00;;;;;;;12.50;1.60;;;;;;;9.77;100.00;93445.13;2134079;27;20027;-70
2022/10/02 02:28:05;;;;;;;6.85;1.38;;;;;;;9.88;100.00;93439.63;2133815;27;20036;-72
2022/10/02 02:29:08;;;;;;;9.02;1.75;;;;;;;9.83;100.00;93440.81;2133847;27;20051;-69
2022/10/02 02:30:12;;;;;;;10.45;2.42;;;;;;;9.79;100.00;93440.91;2133514;27;20027;-69
2022/10/02 02:31:17;;;;;;;15.10;2.05;;;;;;;9.76;100.00;93436.34;2134242;27;20091;-69
2022/10/02 02:32:25;;;;;;;9.32;1.50;;;;;;;9.65;100.00;93435.72;2134606;27;20031;-72
2022/10/02 02:33:38;;;;;;;7.35;1.90;;;;;;;9.74;100.00;93437.91;2134082;27;20030;-69
2022/10/02 02:34:45;;;;;;;7.80;1.40;;;;;;;9.85;100.00;93435.84;2132513;27;20106;-72
2022/10/02 02:35:50;;;;;;;7.22;1.50;;;;;;;9.80;100.00;93434.41;2134401;27;20022;-75
2022/10/02 02:36:58;;;;;;;10.48;1.42;;;;;;;9.80;100.00;93425.63;2133840;27;20023;-68
2022/10/02 02:38:05;;;;;;;10.18;1.80;;;;;;;9.81;100.00;93424.47;2135057;27;20030;-69
2022/10/02 02:39:13;;;;;;;10.80;1.85;;;;;;;9.79;100.00;93424.88;2133844;27;20042;-75
2022/10/02 02:40:23;;;;;;;7.80;1.33;;;;;;;9.73;100.00;93425.72;2133417;27;20341;-72
2022/10/02 02:41:27;;;;;;;11.07;1.85;;;;;;;9.67;100.00;93417.41;2124620;27;20058;-69
2022/10/02 02:42:32;;;;;;;5.93;1.38;;;;;;;9.78;100.00;93422.59;2118025;27;20024;-71
2022/10/02 02:43:58;;;;;;;11.15;1.60;;;;;;;9.77;100.00;93426.44;2124823;27;20106;-71
2022/10/02 02:45:19;;;;;;;6.18;1.20;;;;;;;9.80;100.00;93425.63;2135015;27;20023;-70
2022/10/02 02:46:26;;;;;;;11.57;1.92;;;;;;;9.75;100.00;93429.50;2132613;27;20027;-70
2022/10/02 02:47:36;;;;;;;9.75;1.98;;;;;;;10.05;100.00;93435.94;2134006;27;20019;-72
2022/10/02 02:48:45;;;;;;;8.25;1.50;;;;;;;10.47;100.00;93423.88;2133857;27;20042;-69
2022/10/02 02:50:04;;;;;;;10.57;1.45;;;;;;;10.28;100.00;93432.59;2134331;27;20022;-69
2022/10/02 02:51:14;;;;;;;5.80;1.33;;;;;;;10.13;100.00;93437.34;2134052;27;20496;-69
2022/10/02 02:52:24;;;;;;;9.80;1.85;;;;;;;10.00;100.00;93431.81;2133795;27;20475;-70
2022/10/02 02:53:40;;;;;;;12.00;1.98;;;;;;;9.93;100.00;93433.84;2134076;27;20018;-70
2022/10/02 02:55:13;;;;;;;9.73;1.65;;;;;;;9.92;100.00;93427.75;2134534;27;20031;-72
2022/10/02 02:56:17;;;;;;;8.23;1.23;;;;;;;9.92;100.00;93426.97;2097488;27;20036;-69
2022/10/02 02:57:27;;;;;;;5.25;1.40;;;;;;;10.05;100.00;93428.72;2118380;27;20030;-69
2022/10/02 02:58:40;;;;;;;8.45;1.77;;;;;;;10.09;100.00;93423.28;2126420;27;20415;-68
2022/10/02 02:59:45;;;;;;;7.53;1.33;;;;;;;10.42;100.00;93420.94;2124925;27;20479;-69
2022/10/02 03:00:46;;;;;;;12.60;1.83;;;;;;;10.22;100.00;93421.56;2125278;27;20026;-72
2022/10/02 03:01:47;;;;;;;7.00;1.38;;;;;;;10.17;100.00;93415.94;2133295;27;20023;-72
2022/10/02 03:02:53;;;;;;;5.53;1.20;;;;;;;10.08;100.00;93419.13;2134875;27;20046;-69
2022/10/02 03:03:54;;;;;;;8.10;1.52;;;;;;;10.22;100.00;93421.56;2134022;27;20040;-69
2022/10/02 03:04:55;;;;;;;7.25;1.50;;;;;;;10.13;100.00;93424.00;2134480;27;20406;-70
2022/10/02 03:06:03;;;;;;;8.70;1.92;;;;;;;10.12;100.00;93419.81;2133390;27;20027;-72
2022/10/02 03:07:12;;;;;;;7.07;1.83;;;;;;;10.12;100.00;93424.41;2133337;27;20031;-71
2022/10/02 03:08:19;;;;;;;8.52;1.48;;;;;;;10.08;100.00;93419.13;2134218;27;20030;-72
2022/10/02 03:09:23;;;;;;;9.50;1.23;;;;;;;10.18;100.00;93425.44;2134432;27;20034;-74
2022/10/02 03:10:31;;;;;;;8.02;1.58;;;;;;;10.18;100.00;93420.13;2134465;27;20053;-71
2022/10/02 03:11:45;;;;;;;15.10;2.47;;;;;;;10.16;100.00;93433.13;2123363;27;20055;-71
2022/10/02 03:13:08;;;;;;;8.07;1.48;;;;;;;10.55;100.00;93438.63;2128042;27;20021;-73
2022/10/02 03:14:41;;;;;;;7.43;1.90;;;;;;;10.46;100.00;93438.41;2135319;27;20065;-74
2022/10/02 03:16:26;;;;;;;9.93;1.45;;;;;;;10.70;100.00;93439.16;2117507;27;20066;-72
2022/10/02 03:18:08;;;;;;;6.90;1.58;;;;;;;10.56;100.00;93437.47;2114424;27;20442;-71
2022/10/02 03:19:15;;;;;;;8.27;1.40;;;;;;;10.65;100.00;93446.88;2131896;27;20030;-69
2022/10/02 03:20:40;;;;;;;8.23;1.63;;;;;;;10.35;100.00;93432.47;2133606;27;20583;-71
2022/10/02 03:22:16;;;;;;;6.47;1.45;;;;;;;10.39;100.00;93433.16;2098399;28;20032;-70
2022/10/02 03:23:38;;;;;;;6.28;1.15;;;;;;;10.45;100.00;93428.88;2097847;28;20130;-72
2022/10/02 03:24:45;;;;;;;11.30;1.50;;;;;;;10.33;100.00;93424.13;2133854;27;20133;-74
2022/10/02 03:25:58;;;;;;;7.93;1.48;;;;;;;10.20;100.00;93429.25;2133153;27;20421;-72
2022/10/02 03:27:07;;;;;;;6.85;1.63;;;;;;;10.14;100.00;93424.75;2128930;27;20521;-72
2022/10/02 03:28:35;;;;;;;10.02;1.85;;;;;;;10.14;100.00;93424.75;2128408;27;20038;-72
2022/10/02 03:29:48;;;;;;;8.70;1.38;;;;;;;10.12;100.00;93422.50;2128872;27;20079;-72
2022/10/02 03:30:52;;;;;;;7.35;1.30;;;;;;;10.10;100.00;93419.47;2128449;27;20038;-72
2022/10/02 03:31:55;;;;;;;9.15;1.80;;;;;;;10.03;100.00;93428.34;2118929;27;20023;-74
2022/10/02 03:32:59;;;;;;;7.82;1.52;;;;;;;9.96;100.00;93423.09;2118624;27;20232;-72
2022/10/02 03:34:02;;;;;;;10.82;1.80;;;;;;;9.94;100.00;93414.75;2128241;27;20082;-72
2022/10/02 03:35:08;;;;;;;8.40;1.30;;;;;;;9.97;100.00;93413.19;2129119;27;20069;-72
2022/10/02 03:36:13;;;;;;;7.97;1.33;;;;;;;9.96;100.00;93420.44;2128156;27;20030;-71
2022/10/02 03:37:14;;;;;;;11.73;1.73;;;;;;;9.92;100.00;93422.41;2128795;27;20516;-72
2022/10/02 03:38:17;;;;;;;9.90;2.30;;;;;;;9.89;100.00;93427.81;2127306;27;20038;-70
2022/10/02 03:39:18;;;;;;;6.10;1.50;;;;;;;9.89;100.00;93425.88;2128324;27;20026;-71
2022/10/02 03:40:24;;;;;;;8.85;1.65;;;;;;;9.94;100.00;93430.00;2128285;27;20434;-71
2022/10/02 03:41:25;;;;;;;5.70;1.40;;;;;;;9.94;100.00;93430.00;2128509;27;20033;-71
2022/10/02 03:42:30;;;;;;;7.65;1.35;;;;;;;9.90;100.00;93427.38;2128283;27;20025;-71
2022/10/02 03:43:31;;;;;;;6.28;1.58;;;;;;;9.90;100.00;93426.63;2127023;27;20037;-71
2022/10/02 03:44:32;;;;;;;5.85;1.63;;;;;;;9.86;100.00;93429.34;2127973;27;20476;-73
2022/10/02 03:45:33;;;;;;;5.43;1.15;;;;;;;9.82;100.00;93433.97;2127955;27;20095;-71
2022/10/02 03:46:34;;;;;;;9.63;1.30;;;;;;;10.10;100.00;93432.84;2127339;27;20031;-71
2022/10/02 03:47:35;;;;;;;6.25;1.30;;;;;;;10.07;100.00;93430.97;2117986;27;20035;-74
2022/10/02 03:48:37;;;;;;;7.65;1.40;;;;;;;9.99;100.00;93424.22;2117931;27;20033;-74
2022/10/02 03:49:38;;;;;;;7.05;1.38;;;;;;;9.91;100.00;93423.56;2127931;27;20098;-73
2022/10/02 03:50:39;;;;;;;10.90;1.35;;;;;;;9.86;100.00;93418.66;2128159;27;20023;-74
2022/10/02 03:51:40;;;;;;;7.32;1.67;;;;;;;9.83;100.00;93422.13;2127435;27;20461;-73
2022/10/02 03:52:43;;;;;;;4.70;1.20;;;;;;;9.82;100.00;93420.63;2128589;27;20023;-73
2022/10/02 03:53:44;;;;;;;6.22;1.33;;;;;;;9.84;100.00;93427.09;2118632;27;20050;-74
2022/10/02 03:54:50;;;;;;;8.02;1.48;;;;;;;9.79;100.00;93416.88;2119609;27;20058;-74
2022/10/02 03:55:56;;;;;;;5.47;1.63;;;;;;;9.84;100.00;93421.75;2126935;27;20037;-72
2022/10/02 03:57:03;;;;;;;6.75;1.40;;;;;;;9.87;100.00;93422.84;2127272;27;20102;-71
2022/10/02 03:58:13;;;;;;;4.53;1.02;;;;;;;9.79;100.00;93418.78;2127482;27;20616;-73
2022/10/02 03:59:37;;;;;;;5.68;1.83;;;;;;;9.94;100.00;93422.75;2128002;27;20026;-71
2022/10/02 04:00:48;;;;;;;7.80;1.20;;;;;;;9.91;100.00;93412.88;2127788;27;20035;-73
2022/10/02 04:01:53;;;;;;;9.60;1.42;;;;;;;9.84;100.00;93408.41;2128349;27;20105;-72
2022/10/02 04:03:00;;;;;;;5.28;1.40;;;;;;;9.95;100.00;93405.56;2127533;27;20033;-74
2022/10/02 04:04:16;;;;;;;3.80;0.95;;;;;;;10.04;100.00;93410.41;2126654;27;20042;-71
2022/10/02 04:05:32;;;;;;;8.40;1.48;;;;;;;10.05;100.00;93412.69;2126803;27;20023;-71
2022/10/02 04:06:33;;;;;;;9.45;1.70;;;;;;;10.04;100.00;93423.75;2127464;27;20033;-71
2022/10/02 04:07:38;;;;;;;5.63;1.38;;;;;;;9.99;100.00;93424.97;2127090;27;20465;-71
2022/10/02 04:08:53;;;;;;;4.32;1.27;;;;;;;9.87;100.00;93420.19;2126382;27;20039;-71
2022/10/02 04:10:26;;;;;;;7.18;1.60;;;;;;;9.86;100.00;93418.66;2127756;27;20105;-72
2022/10/02 04:11:45;;;;;;;5.40;1.58;;;;;;;9.84;100.00;93419.09;2128287;27;20475;-70
2022/10/02 04:12:50;;;;;;;6.70;1.10;;;;;;;9.83;100.00;93414.13;2128218;27;20034;-71
2022/10/02 04:14:05;;;;;;;10.88;1.42;;;;;;;9.91;100.00;93420.88;2116929;27;20028;-72
2022/10/02 04:15:17;;;;;;;6.15;1.30;;;;;;;9.93;100.00;93423.91;2119346;27;20438;-71
2022/10/02 04:16:42;;;;;;;5.05;1.15;;;;;;;9.88;100.00;93427.06;2127254;27;20098;-70
2022/10/02 04:17:50;;;;;;;6.65;1.10;;;;;;;9.76;100.00;93420.34;2127732;27;20058;-71
2022/10/02 04:19:00;;;;;;;8.35;1.80;;;;;;;9.71;100.00;93420.03;2126896;27;20457;-74
2022/10/02 04:20:15;;;;;;;2.88;1.38;;;;;;;9.75;100.00;93421.50;2127207;27;20062;-70
2022/10/02 04:21:39;;;;;;;3.42;1.10;;;;;;;9.72;100.00;93429.56;2128646;27;20083;-70
2022/10/02 04:22:49;;;;;;;7.00;1.13;;;;;;;9.64;100.00;93428.88;2127682;27;20872;-71
2022/10/02 04:24:32;;;;;;;5.95;1.27;;;;;;;9.64;100.00;93423.53;2127777;27;20038;-73
2022/10/02 04:25:40;;;;;;;7.55;1.27;;;;;;;9.66;100.00;93431.13;2104398;27;20026;-71
2022/10/02 04:26:46;;;;;;;10.52;1.67;;;;;;;9.63;100.00;93427.38;2127996;27;20033;-73
2022/10/02 04:27:53;;;;;;;5.75;1.23;;;;;;;9.66;100.00;93423.91;2127075;27;20051;-74
2022/10/02 04:29:15;;;;;;;3.35;1.90;;;;;;;9.65;100.00;93421.63;2126551;27;20035;-72
2022/10/02 04:30:19;;;;;;;6.28;1.27;;;;;;;9.63;100.00;93419.38;2128061;27;20038;-72
2022/10/02 04:31:39;;;;;;;8.45;1.30;;;;;;;9.59;100.00;93416.75;2127700;27;20034;-72
2022/10/02 04:32:41;;;;;;;4.88;1.17;;;;;;;9.61;100.00;93415.59;2128097;27;20022;-72
2022/10/02 04:33:42;;;;;;;6.70;1.30;;;;;;;9.58;100.00;93415.25;2126633;27;20513;-71
2022/10/02 04:35:12;;;;;;;7.10;1.20;;;;;;;9.64;100.00;93412.88;2117300;27;20031;-71
2022/10/02 04:37:08;;;;;;;7.57;1.10;;;;;;;9.56;100.00;93411.44;2125322;27;20357;-71
2022/10/02 04:38:40;;;;;;;4.20;1.02;;;;;;;9.52;100.00;93419.50;2122560;27;20091;-71
2022/10/02 04:40:12;;;;;;;5.80;1.30;;;;;;;9.58;100.00;93417.16;2127313;27;20128;-71
2022/10/02 04:41:19;;;;;;;6.78;1.63;;;;;;;9.50;100.00;93416.50;2126483;27;20026;-72
2022/10/02 04:42:38;;;;;;;11.88;1.23;;;;;;;9.54;100.00;93414.53;2127299;27;20034;-71
2022/10/02 04:44:12;;;;;;;9.37;1.37;;;;;;;9.53;100.00;93406.94;2127803;27;20042;-71
2022/10/02 04:45:39;;;;;;;3.95;0.93;;;;;;;9.62;100.00;93403.78;2128149;27;20501;-71
2022/10/02 04:47:07;;;;;;;4.75;1.33;;;;;;;9.58;100.00;93409.91;2126175;27;20476;-71
2022/10/02 04:49:04;;;;;;;4.28;1.00;;;;;;;9.60;100.00;93401.47;2128013;27;20367;-71
2022/10/02 04:50:36;;;;;;;;;;;;;;;9.49;100.00;93406.97;2119272;27;20035;-71
2022/10/02 04:52:13;;;;;;;7.55;1.00;;;;;;;9.51;100.00;93401.22;2118733;27;20372;-71
2022/10/02 04:53:32;;;;;;;5.15;1.33;;;;;;;9.54;100.00;93403.09;2121487;27;20026;-73
2022/10/02 04:54:46;;;;;;;5.57;1.30;;;;;;;9.55;100.00;93404.59;2127004;27;20041;-72
2022/10/02 04:55:57;;;;;;;4.80;1.45;;;;;;;9.51;100.00;93401.22;2127731;27;20070;-72
2022/10/02 04:57:17;;;;;;;6.20;0.95;;;;;;;9.56;100.00;93401.53;2117538;27;20047;-74
2022/10/02 04:58:46;;;;;;;7.95;1.60;;;;;;;9.56;100.00;93400.78;2114691;27;20201;-73
2022/10/02 04:59:47;;;;;;;5.80;1.50;;;;;;;9.52;100.00;93394.72;2124035;27;20043;-75
2022/10/02 05:01:14;;;;;;;5.43;1.40;;;;;;;9.53;100.00;93396.25;2115830;27;20101;-73
2022/10/02 05:02:27;;;;;;;4.20;1.02;;;;;;;9.52;100.00;93397.41;2118246;27;20113;-72
2022/10/02 05:03:46;;;;;;;4.68;1.30;;;;;;;9.51;100.00;93399.31;2121293;27;20039;-73
2022/10/02 05:05:00;;;;;;;;;;;;;;;9.49;100.00;93388.28;2125059;27;20023;-73
2022/10/02 05:06:16;;;;;;;5.28;1.38;;;;;;;9.46;100.00;93389.09;2123753;27;20057;-75
2022/10/02 05:07:40;;;;;;;8.05;1.52;;;;;;;9.53;100.00;93388.25;2123237;27;20059;-72
2022/10/02 05:08:53;;;;;;;7.78;1.30;;;;;;;9.54;100.00;93387.09;2116070;27;20023;-74
2022/10/02 05:10:07;;;;;;;5.07;1.30;;;;;;;9.56;100.00;93384.75;2116495;27;20477;-71
2022/10/02 05:11:32;;;;;;;3.83;0.90;;;;;;;9.55;100.00;93389.34;2123534;27;20763;-72
2022/10/02 05:12:42;;;;;;;5.47;0.90;;;;;;;9.53;100.00;93390.94;2123977;27;20519;-72
2022/10/02 05:14:10;;;;;;;5.43;1.50;;;;;;;9.56;100.00;93384.75;2124100;27;20022;-71
2022/10/02 05:15:29;;;;;;;6.00;1.20;;;;;;;9.57;100.00;93384.38;2123907;27;20050;-72
2022/10/02 05:16:31;;;;;;;6.00;1.58;;;;;;;9.57;100.00;93378.28;2126378;27;20030;-73
2022/10/02 05:17:42;;;;;;;6.13;1.25;;;;;;;9.66;100.00;93380.44;2125411;27;20038;-75
2022/10/02 05:18:57;;;;;;;6.28;1.40;;;;;;;9.70;100.00;93381.13;2123636;27;20679;-74
2022/10/02 05:20:18;;;;;;;8.55;1.35;;;;;;;9.70;100.00;93384.59;2124160;27;20486;-75
2022/10/02 05:21:37;;;;;;;4.53;1.05;;;;;;;9.73;100.00;93380.34;2124681;27;20038;-73
2022/10/02 05:23:03;;;;;;;5.30;1.33;;;;;;;9.67;100.00;93379.28;2124848;27;20030;-72
2022/10/02 05:24:11;;;;;;;6.38;1.75;;;;;;;9.64;100.00;93380.09;2123820;27;20035;-73
2022/10/02 05:25:50;;;;;;;1.88;0.73;;;;;;;9.66;100.00;93375.88;2115431;27;20029;-74
2022/10/02 05:27:10;;;;;;;4.97;1.27;;;;;;;9.70;100.00;93379.25;2120439;27;20212;-74
2022/10/02 05:28:28;;;;;;;5.05;1.10;;;;;;;9.83;100.00;93376.75;2125888;27;20019;-73
2022/10/02 05:29:59;;;;;;;5.22;1.20;;;;;;;9.96;100.00;93379.63;2124220;27;20055;-76
2022/10/02 05:31:06;;;;;;;4.63;0.90;;;;;;;9.88;100.00;93373.66;2124472;27;20023;-75
2022/10/02 05:32:33;;;;;;;5.32;1.20;;;;;;;9.86;100.00;93381.28;2124224;27;20103;-73
2022/10/02 05:33:58;;;;;;;10.48;1.60;;;;;;;9.76;100.00;93382.22;2095457;27;20343;-72
2022/10/02 05:35:01;;;;;;;4.38;1.10;;;;;;;9.76;100.00;93384.88;2125393;27;20109;-72
2022/10/02 05:36:36;;;;;;;7.25;1.38;;;;;;;9.76;100.00;93384.88;2115008;27;20024;-73
2022/10/02 05:37:59;;;;;;;4.55;1.10;;;;;;;9.73;100.00;93380.34;2120804;27;20034;-74
2022/10/02 05:39:01;;;;;;;4.93;1.30;;;;;;;9.74;100.00;93379.94;2124419;27;20038;-74
2022/10/02 05:40:17;;;;;;;7.25;1.52;;;;;;;9.74;100.00;93385.28;2124653;27;20031;-74
2022/10/02 05:41:23;;;;;;;5.75;1.00;;;;;;;9.83;100.00;93380.22;2124668;27;20026;-73
2022/10/02 05:42:35;;;;;;;5.07;1.45;;;;;;;9.76;100.00;93376.88;2125098;27;20283;-74
2022/10/02 05:43:45;;;;;;;4.10;1.20;;;;;;;9.72;100.00;93384.19;2124822;27;20046;-74
2022/10/02 05:44:52;;;;;;;6.63;1.85;;;;;;;9.62;100.00;93379.75;2124370;27;20034;-72
2022/10/02 05:45:57;;;;;;;4.85;1.83;;;;;;;9.58;100.00;93380.53;2126617;27;20031;-72
2022/10/02 05:47:06;;;;;;;8.57;3.63;;;;;;;9.53;100.00;93383.66;2125530;27;20050;-72